Time;durP1;ratioP1;P1;durP2;ratioP2;P2;SDS_P1;SDS_P2;PMS_P1;PMS_P2;Temp;Humidity;BMP_temperature;BMP_pressure;BME280_temperature;BME280_humidity;BME280_pressure;Samples;Min_cycle;Max_cycle;Signal;HPM_P1;HPM_P2
2022/01/13 00:01:54;;;;;;;76.18;32.50;;;;;;;;;;5020866;28;20045;-60
2022/01/13 00:04:20;;;;;;;76.97;33.05;;;;;;;;;;5022333;28;20611;-60
2022/01/13 00:06:46;;;;;;;75.45;34.00;;;;;;;;;;5018560;28;20437;-59
2022/01/13 00:09:13;;;;;;;80.95;33.78;;;;;;;;;;5020870;28;20105;-60
2022/01/13 00:11:39;;;;;;;77.00;33.53;;;;;;;;;;5019246;28;20085;-61
2022/01/13 00:14:24;;;;;;;89.38;35.55;;;;;;;;;;5019611;28;20025;-60
2022/01/13 00:24:58;;;;;;;82.00;35.63;;;;;;;;;;5022472;28;20511;-60
2022/01/13 00:27:26;;;;;;;79.80;35.05;;;;;;;;;;5020404;28;20061;-59
2022/01/13 00:29:55;;;;;;;87.32;35.58;;;;;;;;;;5018379;28;20151;-59
2022/01/13 00:32:23;;;;;;;84.38;35.42;;;;;;;;;;5021563;28;20400;-61
2022/01/13 00:34:49;;;;;;;77.22;34.33;;;;;;;;;;5018312;28;20147;-61
2022/01/13 00:37:15;;;;;;;85.20;35.35;;;;;;;;;;5013240;28;20625;-60
2022/01/13 00:39:41;;;;;;;78.18;35.17;;;;;;;;;;5021704;28;20023;-60
2022/01/13 00:42:08;;;;;;;79.63;34.88;;;;;;;;;;5016703;28;20040;-61
2022/01/13 00:44:37;;;;;;;77.78;35.15;;;;;;;;;;5022381;28;20443;-59
2022/01/13 00:47:05;;;;;;;80.00;33.53;;;;;;;;;;5020426;28;20033;-60
2022/01/13 00:49:31;;;;;;;77.78;34.35;;;;;;;;;;5027554;28;20048;-61
2022/01/13 00:51:57;;;;;;;80.47;35.20;;;;;;;;;;5025979;28;20029;-60
2022/01/13 00:54:23;;;;;;;82.22;35.92;;;;;;;;;;5026757;28;20052;-60
2022/01/13 00:56:49;;;;;;;79.43;35.63;;;;;;;;;;5027091;28;20043;-60
2022/01/13 00:59:16;;;;;;;88.32;37.45;;;;;;;;;;5024983;28;20501;-60
2022/01/13 01:01:46;;;;;;;80.80;36.80;;;;;;;;;;5021986;28;20091;-60
2022/01/13 01:04:12;;;;;;;88.18;37.67;;;;;;;;;;5028237;28;20029;-60
2022/01/13 01:06:39;;;;;;;85.20;36.85;;;;;;;;;;5026975;28;20668;-60
2022/01/13 01:09:06;;;;;;;81.38;36.83;;;;;;;;;;5019279;28;20859;-59
2022/01/13 01:11:32;;;;;;;79.45;35.58;;;;;;;;;;5022659;28;20376;-60
2022/01/13 01:14:00;;;;;;;79.88;35.90;;;;;;;;;;5026874;28;20013;-59
2022/01/13 01:16:26;;;;;;;82.13;36.75;;;;;;;;;;5022414;28;20029;-60
2022/01/13 01:19:04;;;;;;;90.53;37.30;;;;;;;;;;5022036;28;20037;-59
2022/01/13 01:21:37;;;;;;;87.40;39.08;;;;;;;;;;5018014;28;20032;-61
2022/01/13 01:26:57;;;;;;;89.63;36.92;;;;;;;;;;5026997;28;20072;-60
2022/01/13 01:29:44;;;;;;;88.32;38.45;;;;;;;;;;5024394;28;20009;-59
2022/01/13 01:32:14;;;;;;;92.82;39.08;;;;;;;;;;5026128;28;20542;-59
2022/01/13 01:34:55;;;;;;;86.10;39.20;;;;;;;;;;5028002;28;20055;-59
2022/01/13 01:37:23;;;;;;;92.78;38.55;;;;;;;;;;5022216;28;20445;-61
2022/01/13 01:39:50;;;;;;;86.00;37.75;;;;;;;;;;5024825;28;20418;-61
2022/01/13 01:42:16;;;;;;;87.93;37.28;;;;;;;;;;5024579;28;20033;-60
2022/01/13 01:44:44;;;;;;;93.25;37.83;;;;;;;;;;5025957;28;20045;-59
2022/01/13 01:47:13;;;;;;;91.70;38.00;;;;;;;;;;5025402;28;20017;-61
2022/01/13 01:49:41;;;;;;;90.22;38.28;;;;;;;;;;5026523;28;20422;-60
2022/01/13 01:52:08;;;;;;;92.57;37.65;;;;;;;;;;5019165;28;20018;-60
2022/01/13 01:54:34;;;;;;;92.45;36.90;;;;;;;;;;5023614;28;20386;-60
2022/01/13 01:57:01;;;;;;;87.15;37.53;;;;;;;;;;5027140;28;20021;-60
2022/01/13 01:59:30;;;;;;;88.35;39.30;;;;;;;;;;5027536;28;20029;-59
2022/01/13 02:01:57;;;;;;;93.00;38.15;;;;;;;;;;5030458;28;20013;-59
2022/01/13 02:04:26;;;;;;;87.65;38.15;;;;;;;;;;5026713;28;20026;-60
2022/01/13 02:06:56;;;;;;;96.13;38.70;;;;;;;;;;5024204;28;20496;-60
2022/01/13 02:09:23;;;;;;;94.47;38.78;;;;;;;;;;5026380;28;20047;-60
2022/01/13 02:11:54;;;;;;;91.35;38.65;;;;;;;;;;5019752;28;20029;-60
2022/01/13 02:16:55;;;;;;;92.50;40.78;;;;;;;;;;5019494;28;20563;-60
2022/01/13 02:19:24;;;;;;;95.97;40.35;;;;;;;;;;5017246;28;20034;-59
2022/01/13 02:21:50;;;;;;;89.03;39.10;;;;;;;;;;5019954;28;20503;-60
2022/01/13 02:24:16;;;;;;;90.28;38.83;;;;;;;;;;5014502;28;20465;-60
2022/01/13 02:26:42;;;;;;;90.47;40.30;;;;;;;;;;5028543;28;20114;-60
2022/01/13 02:29:08;;;;;;;91.88;39.83;;;;;;;;;;5021663;28;20052;-60
2022/01/13 02:31:34;;;;;;;96.70;42.08;;;;;;;;;;5020660;28;20124;-59
2022/01/13 02:34:00;;;;;;;93.88;40.42;;;;;;;;;;5028971;28;20093;-59
2022/01/13 02:36:27;;;;;;;93.03;39.15;;;;;;;;;;5021700;28;20036;-61
2022/01/13 02:38:57;;;;;;;94.25;39.90;;;;;;;;;;5022200;28;21762;-61
2022/01/13 02:41:23;;;;;;;96.38;40.42;;;;;;;;;;5024611;28;20025;-58
2022/01/13 02:43:53;;;;;;;94.10;42.03;;;;;;;;;;5023776;28;20635;-60
2022/01/13 02:49:01;;;;;;;104.30;41.45;;;;;;;;;;5019418;28;20041;-58
2022/01/13 02:51:28;;;;;;;97.82;42.42;;;;;;;;;;5019598;28;20100;-61
2022/01/13 02:53:54;;;;;;;93.65;40.78;;;;;;;;;;5024442;28;20639;-61
2022/01/13 02:56:20;;;;;;;96.22;40.30;;;;;;;;;;5023768;28;20404;-59
2022/01/13 02:58:46;;;;;;;106.78;41.78;;;;;;;;;;5022111;28;20030;-59
2022/01/13 03:01:13;;;;;;;103.82;39.50;;;;;;;;;;5023532;28;20477;-60
2022/01/13 03:03:40;;;;;;;96.30;39.78;;;;;;;;;;5025306;28;20427;-60
2022/01/13 03:06:09;;;;;;;101.28;40.53;;;;;;;;;;5021739;28;20024;-60
2022/01/13 03:08:36;;;;;;;103.82;40.53;;;;;;;;;;5024728;28;20014;-59
2022/01/13 03:11:02;;;;;;;106.57;42.70;;;;;;;;;;5023231;28;20354;-60
2022/01/13 03:13:29;;;;;;;100.40;41.15;;;;;;;;;;5023350;28;20043;-60
2022/01/13 03:15:55;;;;;;;112.50;42.35;;;;;;;;;;5015647;28;20033;-61
2022/01/13 03:18:21;;;;;;;114.53;44.88;;;;;;;;;;5020105;28;20124;-59
2022/01/13 03:20:47;;;;;;;103.50;41.03;;;;;;;;;;5020243;28;20486;-60
2022/01/13 03:23:17;;;;;;;101.43;42.83;;;;;;;;;;5017834;28;20159;-58
2022/01/13 03:25:47;;;;;;;110.10;42.55;;;;;;;;;;5023671;28;20708;-59
2022/01/13 03:28:17;;;;;;;101.72;39.72;;;;;;;;;;5027261;28;20675;-59
2022/01/13 03:30:44;;;;;;;100.95;40.25;;;;;;;;;;5024983;28;20474;-60
2022/01/13 03:33:10;;;;;;;107.85;42.17;;;;;;;;;;5019013;28;20102;-60
2022/01/13 03:35:40;;;;;;;112.55;43.20;;;;;;;;;;5016963;28;20033;-60
2022/01/13 03:38:06;;;;;;;111.47;45.15;;;;;;;;;;5021277;28;20036;-59
2022/01/13 03:40:33;;;;;;;103.55;42.25;;;;;;;;;;5025248;28;20488;-61
2022/01/13 03:43:01;;;;;;;114.97;45.25;;;;;;;;;;5014921;28;20028;-61
2022/01/13 03:45:27;;;;;;;112.78;43.03;;;;;;;;;;5025337;28;20029;-59
2022/01/13 03:47:54;;;;;;;108.10;42.78;;;;;;;;;;5016756;28;20087;-60
2022/01/13 03:50:20;;;;;;;118.55;43.22;;;;;;;;;;5014451;28;20033;-61
2022/01/13 03:53:05;;;;;;;124.15;46.25;;;;;;;;;;5023223;28;20026;-59
2022/01/13 03:55:38;;;;;;;117.38;45.10;;;;;;;;;;5009522;28;20022;-60
2022/01/13 03:58:23;;;;;;;104.25;43.03;;;;;;;;;;5020576;28;20013;-59
2022/01/13 04:00:58;;;;;;;115.07;44.60;;;;;;;;;;5020143;28;20033;-60
2022/01/13 04:03:24;;;;;;;117.07;44.47;;;;;;;;;;5020265;28;20024;-60
2022/01/13 04:06:22;;;;;;;114.28;44.53;;;;;;;;;;5015046;28;20026;-61
2022/01/13 04:08:49;;;;;;;116.90;45.40;;;;;;;;;;5005831;28;20120;-60
2022/01/13 04:11:31;;;;;;;113.85;44.08;;;;;;;;;;5027288;28;20024;-59
2022/01/13 04:14:04;;;;;;;110.47;44.17;;;;;;;;;;5031765;28;20477;-61
2022/01/13 04:16:33;;;;;;;116.93;45.67;;;;;;;;;;5013761;28;20056;-60
2022/01/13 04:19:04;;;;;;;116.40;44.83;;;;;;;;;;5016735;28;20032;-60
2022/01/13 04:21:31;;;;;;;115.97;45.08;;;;;;;;;;5015460;28;20029;-60
2022/01/13 04:23:57;;;;;;;124.68;44.95;;;;;;;;;;5026633;28;20417;-60
2022/01/13 04:26:28;;;;;;;119.30;45.42;;;;;;;;;;5028123;28;20569;-61
2022/01/13 04:31:40;;;;;;;86.70;36.03;;;;;;;;;;5023888;28;20047;-60
2022/01/13 04:34:06;;;;;;;109.57;42.63;;;;;;;;;;5022326;28;20256;-60
2022/01/13 04:36:33;;;;;;;108.72;43.00;;;;;;;;;;5026676;28;20095;-59
2022/01/13 04:38:58;;;;;;;114.15;44.35;;;;;;;;;;5027359;28;20108;-60
2022/01/13 04:41:31;;;;;;;106.20;43.05;;;;;;;;;;5028037;28;20203;-60
2022/01/13 04:43:57;;;;;;;104.23;42.87;;;;;;;;;;5030430;28;20061;-59
2022/01/13 04:46:24;;;;;;;118.80;47.42;;;;;;;;;;5017993;28;20285;-60
2022/01/13 04:48:50;;;;;;;109.85;46.17;;;;;;;;;;5023700;28;20076;-59
2022/01/13 04:51:16;;;;;;;111.60;45.47;;;;;;;;;;5030090;28;20113;-59
2022/01/13 04:53:42;;;;;;;110.82;45.78;;;;;;;;;;5024180;28;20112;-59
2022/01/13 04:56:12;;;;;;;106.40;44.67;;;;;;;;;;5021717;28;20033;-60
2022/01/13 04:58:39;;;;;;;103.55;44.28;;;;;;;;;;5021782;28;20030;-59
2022/01/13 05:01:05;;;;;;;99.63;42.45;;;;;;;;;;5023182;28;20913;-60
2022/01/13 05:03:31;;;;;;;98.28;42.92;;;;;;;;;;5029150;28;20659;-60
2022/01/13 05:05:57;;;;;;;108.80;44.95;;;;;;;;;;5024447;28;20072;-60
2022/01/13 05:08:23;;;;;;;106.78;43.65;;;;;;;;;;5026001;28;20021;-60
2022/01/13 05:10:49;;;;;;;107.13;44.60;;;;;;;;;;5020888;28;20631;-60
2022/01/13 05:13:15;;;;;;;108.78;46.70;;;;;;;;;;5025153;28;20017;-59
2022/01/13 05:15:43;;;;;;;108.85;44.15;;;;;;;;;;5024798;28;20121;-59
2022/01/13 05:18:28;;;;;;;99.90;43.33;;;;;;;;;;5026253;28;20028;-60
2022/01/13 05:21:06;;;;;;;101.82;43.83;;;;;;;;;;5025074;28;20160;-61
2022/01/13 05:23:32;;;;;;;111.20;46.72;;;;;;;;;;5021314;28;20347;-60
2022/01/13 05:25:58;;;;;;;103.20;43.78;;;;;;;;;;5027706;28;20018;-60
2022/01/13 05:28:25;;;;;;;101.03;42.53;;;;;;;;;;5021693;28;20091;-61
2022/01/13 05:30:51;;;;;;;103.75;43.75;;;;;;;;;;5021097;28;20032;-60
2022/01/13 05:33:17;;;;;;;101.50;44.90;;;;;;;;;;5023530;28;20227;-59
2022/01/13 05:35:43;;;;;;;99.03;45.67;;;;;;;;;;5024031;28;20480;-59
2022/01/13 05:38:10;;;;;;;101.78;43.95;;;;;;;;;;5016258;28;20473;-59
2022/01/13 05:40:37;;;;;;;100.38;45.00;;;;;;;;;;5021284;28;20465;-59
2022/01/13 05:43:04;;;;;;;103.78;45.15;;;;;;;;;;5019039;28;20050;-60
2022/01/13 05:45:33;;;;;;;96.50;43.28;;;;;;;;;;5019119;28;20135;-61
2022/01/13 05:47:59;;;;;;;99.72;43.95;;;;;;;;;;5019494;28;20116;-60
2022/01/13 05:50:25;;;;;;;101.95;42.80;;;;;;;;;;5018704;28;20026;-60
2022/01/13 05:52:51;;;;;;;100.68;44.10;;;;;;;;;;5026361;28;20041;-61
2022/01/13 05:55:18;;;;;;;93.82;43.22;;;;;;;;;;5026274;28;20029;-59
2022/01/13 05:57:44;;;;;;;101.80;44.78;;;;;;;;;;5018855;28;20392;-60
2022/01/13 06:00:11;;;;;;;100.35;44.83;;;;;;;;;;5018579;28;20156;-60
2022/01/13 06:02:37;;;;;;;100.38;45.55;;;;;;;;;;5022203;28;20022;-59
2022/01/13 06:05:03;;;;;;;101.90;44.50;;;;;;;;;;5020963;28;20049;-59
2022/01/13 06:07:29;;;;;;;100.78;45.45;;;;;;;;;;5026263;28;20041;-60
2022/01/13 06:09:55;;;;;;;97.65;44.53;;;;;;;;;;5028538;28;20022;-60
2022/01/13 06:12:31;;;;;;;99.22;44.90;;;;;;;;;;5021612;28;20026;-59
2022/01/13 06:14:58;;;;;;;102.47;43.33;;;;;;;;;;5026306;28;20373;-59
2022/01/13 06:17:23;;;;;;;100.47;44.03;;;;;;;;;;5023470;28;20430;-60
2022/01/13 06:19:49;;;;;;;96.82;44.63;;;;;;;;;;5024005;28;20057;-59
2022/01/13 06:22:15;;;;;;;97.32;44.55;;;;;;;;;;5015413;28;20486;-61
2022/01/13 06:24:41;;;;;;;97.95;44.60;;;;;;;;;;5029447;28;20105;-61
2022/01/13 06:27:07;;;;;;;98.88;42.75;;;;;;;;;;5029149;28;20040;-60
2022/01/13 06:29:33;;;;;;;97.07;43.00;;;;;;;;;;5020927;28;20056;-61
2022/01/13 06:31:59;;;;;;;99.95;44.80;;;;;;;;;;5028815;28;20021;-58
2022/01/13 06:34:25;;;;;;;94.75;43.55;;;;;;;;;;5033890;28;20021;-59
2022/01/13 06:36:51;;;;;;;105.95;45.35;;;;;;;;;;5033713;28;20702;-60
2022/01/13 06:39:17;;;;;;;95.15;44.05;;;;;;;;;;5018637;28;20072;-60
2022/01/13 06:41:43;;;;;;;96.75;43.20;;;;;;;;;;5032681;28;20738;-61
2022/01/13 06:44:09;;;;;;;95.28;43.22;;;;;;;;;;5031540;28;20024;-59
2022/01/13 06:46:36;;;;;;;102.60;43.63;;;;;;;;;;5022591;28;20034;-58
2022/01/13 06:49:02;;;;;;;101.07;44.78;;;;;;;;;;5022422;28;20484;-60
2022/01/13 06:51:28;;;;;;;102.20;45.58;;;;;;;;;;5024003;28;20040;-61
2022/01/13 06:53:54;;;;;;;93.18;41.92;;;;;;;;;;5027831;28;20033;-61
2022/01/13 06:56:21;;;;;;;98.93;45.80;;;;;;;;;;5013785;28;20399;-59
2022/01/13 06:58:49;;;;;;;97.40;43.25;;;;;;;;;;5009997;28;20033;-60
2022/01/13 07:01:15;;;;;;;96.80;43.70;;;;;;;;;;5028328;28;20333;-61
2022/01/13 07:03:41;;;;;;;90.53;40.60;;;;;;;;;;5024074;28;20029;-61
2022/01/13 07:06:07;;;;;;;94.40;42.03;;;;;;;;;;5034155;28;20022;-60
2022/01/13 07:08:33;;;;;;;89.43;41.42;;;;;;;;;;5030777;28;20083;-61
2022/01/13 07:11:03;;;;;;;96.65;42.95;;;;;;;;;;5018211;28;20579;-61
2022/01/13 07:13:29;;;;;;;97.10;43.28;;;;;;;;;;5026887;28;20598;-60
2022/01/13 07:15:55;;;;;;;99.10;43.50;;;;;;;;;;5020289;28;20033;-60
2022/01/13 07:18:21;;;;;;;94.13;42.72;;;;;;;;;;5024136;28;21172;-60
2022/01/13 07:20:48;;;;;;;104.22;45.25;;;;;;;;;;5021735;28;20026;-61
2022/01/13 07:23:14;;;;;;;99.00;44.28;;;;;;;;;;5026099;28;20029;-61
2022/01/13 07:25:40;;;;;;;102.90;43.90;;;;;;;;;;5022531;28;20035;-61
2022/01/13 07:28:06;;;;;;;98.10;44.25;;;;;;;;;;5020139;28;20595;-60
2022/01/13 07:30:33;;;;;;;102.90;43.30;;;;;;;;;;5016245;28;20037;-61
2022/01/13 07:32:59;;;;;;;101.78;43.15;;;;;;;;;;5025222;28;20029;-61
2022/01/13 07:35:25;;;;;;;96.50;42.70;;;;;;;;;;5032499;28;20025;-61
2022/01/13 07:37:51;;;;;;;99.80;41.85;;;;;;;;;;5037958;28;20021;-60
2022/01/13 07:40:17;;;;;;;96.97;41.88;;;;;;;;;;5033091;28;20024;-60
2022/01/13 07:42:44;;;;;;;103.18;42.65;;;;;;;;;;5018425;28;20028;-60
2022/01/13 07:45:11;;;;;;;97.32;43.38;;;;;;;;;;5019133;28;20084;-60
2022/01/13 07:47:37;;;;;;;95.55;40.75;;;;;;;;;;5019339;28;20036;-61
2022/01/13 07:50:05;;;;;;;91.82;41.00;;;;;;;;;;5024902;28;20044;-60
2022/01/13 07:52:31;;;;;;;101.35;40.63;;;;;;;;;;5020769;28;20022;-60
2022/01/13 07:54:57;;;;;;;90.20;37.90;;;;;;;;;;5026876;28;20022;-60
2022/01/13 07:57:23;;;;;;;98.53;41.13;;;;;;;;;;5031192;28;20055;-61
2022/01/13 07:59:49;;;;;;;86.13;36.97;;;;;;;;;;5026762;28;20017;-61
2022/01/13 08:02:15;;;;;;;97.82;42.05;;;;;;;;;;5024748;28;20035;-60
2022/01/13 08:04:41;;;;;;;93.07;40.13;;;;;;;;;;5025037;28;20022;-61
2022/01/13 08:07:07;;;;;;;98.88;40.20;;;;;;;;;;5031069;28;20029;-61
2022/01/13 08:09:33;;;;;;;103.95;42.63;;;;;;;;;;5025392;28;20551;-60
2022/01/13 08:11:59;;;;;;;94.90;40.15;;;;;;;;;;5038335;28;20196;-61
2022/01/13 08:14:25;;;;;;;93.47;40.15;;;;;;;;;;5029993;28;20029;-60
2022/01/13 08:16:55;;;;;;;102.88;41.13;;;;;;;;;;5021797;28;20026;-61
2022/01/13 08:22:06;;;;;;;101.53;40.97;;;;;;;;;;5029583;28;20548;-61
2022/01/13 08:24:32;;;;;;;100.97;42.80;;;;;;;;;;5022004;28;20014;-61
2022/01/13 08:26:58;;;;;;;102.32;43.10;;;;;;;;;;5035379;28;20522;-60
2022/01/13 08:29:24;;;;;;;104.60;42.28;;;;;;;;;;5034632;28;20467;-60
2022/01/13 08:31:50;;;;;;;99.65;40.17;;;;;;;;;;5021168;28;20042;-60
2022/01/13 08:34:16;;;;;;;101.70;41.65;;;;;;;;;;5027404;28;20091;-61
2022/01/13 08:36:43;;;;;;;108.07;42.63;;;;;;;;;;5029409;28;20404;-61
2022/01/13 08:39:09;;;;;;;104.18;44.15;;;;;;;;;;5021027;28;20447;-61
2022/01/13 08:41:35;;;;;;;100.88;41.85;;;;;;;;;;5025136;28;20178;-61
2022/01/13 08:44:01;;;;;;;100.85;43.90;;;;;;;;;;5025807;28;20026;-61
2022/01/13 08:46:27;;;;;;;98.50;42.78;;;;;;;;;;5025803;28;20026;-60
2022/01/13 08:48:53;;;;;;;103.80;42.13;;;;;;;;;;5026394;28;20652;-60
2022/01/13 08:51:20;;;;;;;105.57;44.03;;;;;;;;;;5023062;28;20027;-60
2022/01/13 08:53:46;;;;;;;103.43;42.03;;;;;;;;;;5026066;28;20362;-60
2022/01/13 08:56:13;;;;;;;100.30;40.95;;;;;;;;;;5026095;28;20029;-61
2022/01/13 08:58:39;;;;;;;94.75;39.72;;;;;;;;;;5024104;28;20438;-61
2022/01/13 09:01:07;;;;;;;102.78;41.85;;;;;;;;;;5020102;28;20029;-60
2022/01/13 09:03:33;;;;;;;99.55;40.80;;;;;;;;;;5028446;28;20361;-61
2022/01/13 09:05:59;;;;;;;99.63;41.85;;;;;;;;;;5019335;28;20025;-60
2022/01/13 09:08:25;;;;;;;105.80;42.00;;;;;;;;;;5011453;28;20049;-61
2022/01/13 09:10:51;;;;;;;98.65;41.95;;;;;;;;;;5031341;28;20021;-61
2022/01/13 09:13:17;;;;;;;100.78;41.97;;;;;;;;;;5020080;28;20370;-60
2022/01/13 09:16:41;;;;;;;106.93;42.17;;;;;;;;;;5026208;28;20424;-61
2022/01/13 09:21:13;;;;;;;104.30;41.72;;;;;;;;;;5022953;28;20033;-60
2022/01/13 09:23:39;;;;;;;109.45;43.45;;;;;;;;;;5014136;28;20025;-61
2022/01/13 09:26:05;;;;;;;112.88;44.28;;;;;;;;;;5031940;28;20090;-61
2022/01/13 09:28:31;;;;;;;113.60;42.58;;;;;;;;;;5019391;28;20385;-61
2022/01/13 09:30:57;;;;;;;111.93;42.08;;;;;;;;;;5020168;28;20036;-61
2022/01/13 09:33:23;;;;;;;102.95;41.78;;;;;;;;;;5023824;28;20745;-60
2022/01/13 09:35:49;;;;;;;99.20;42.03;;;;;;;;;;5020345;28;20041;-61
2022/01/13 09:38:15;;;;;;;101.75;43.05;;;;;;;;;;5019056;28;20044;-60
2022/01/13 09:40:47;;;;;;;101.63;42.92;;;;;;;;;;5018399;28;20065;-60
2022/01/13 09:43:13;;;;;;;112.45;44.63;;;;;;;;;;5023816;28;20040;-62
2022/01/13 09:45:40;;;;;;;106.57;41.88;;;;;;;;;;5021130;28;20116;-61
2022/01/13 09:48:06;;;;;;;169.48;80.68;;;;;;;;;;5019939;28;21364;-61
2022/01/13 09:50:33;;;;;;;145.98;61.63;;;;;;;;;;5020928;28;20026;-61
2022/01/13 09:52:59;;;;;;;107.38;43.63;;;;;;;;;;5024830;28;20043;-60
2022/01/13 09:55:25;;;;;;;96.47;41.85;;;;;;;;;;5023572;28;20107;-61
2022/01/13 09:57:52;;;;;;;100.85;40.88;;;;;;;;;;5025611;28;20033;-61
2022/01/13 10:00:20;;;;;;;99.07;41.35;;;;;;;;;;5019043;28;20096;-60
2022/01/13 10:02:46;;;;;;;100.80;40.85;;;;;;;;;;5021678;28;20622;-61
2022/01/13 10:05:12;;;;;;;97.72;40.83;;;;;;;;;;5025095;28;20520;-60
2022/01/13 10:07:41;;;;;;;104.45;40.42;;;;;;;;;;5016549;28;20025;-61
2022/01/13 10:10:08;;;;;;;95.38;39.95;;;;;;;;;;5020671;28;20389;-61
2022/01/13 10:12:39;;;;;;;98.22;41.90;;;;;;;;;;5014742;28;20010;-61
2022/01/13 10:17:43;;;;;;;93.38;39.80;;;;;;;;;;5032044;28;20041;-61
2022/01/13 10:20:13;;;;;;;97.68;39.67;;;;;;;;;;5020036;28;20032;-60
2022/01/13 10:22:39;;;;;;;100.40;39.92;;;;;;;;;;5019826;28;20029;-61
2022/01/13 10:25:05;;;;;;;96.32;39.63;;;;;;;;;;5028999;28;20033;-61
2022/01/13 10:27:33;;;;;;;89.30;39.28;;;;;;;;;;5016162;28;20032;-61
2022/01/13 10:30:18;;;;;;;90.78;38.78;;;;;;;;;;5024800;28;20022;-60
2022/01/13 10:32:45;;;;;;;91.30;39.30;;;;;;;;;;5021954;28;20043;-62
2022/01/13 10:35:14;;;;;;;87.65;37.55;;;;;;;;;;5026286;28;20255;-61
2022/01/13 10:37:41;;;;;;;86.28;37.55;;;;;;;;;;5020619;28;20039;-61
2022/01/13 10:40:10;;;;;;;92.65;37.75;;;;;;;;;;5025123;28;20037;-61
2022/01/13 10:45:23;;;;;;;84.05;38.35;;;;;;;;;;5020894;28;20288;-61
2022/01/13 10:48:08;;;;;;;82.07;35.63;;;;;;;;;;5014013;28;20106;-61
2022/01/13 10:50:39;;;;;;;86.57;37.13;;;;;;;;;;5019182;28;20204;-62
2022/01/13 10:53:10;;;;;;;82.05;36.47;;;;;;;;;;5022569;28;20051;-61
2022/01/13 10:55:38;;;;;;;83.93;36.45;;;;;;;;;;5021692;28;20492;-61
2022/01/13 10:58:04;;;;;;;89.35;38.83;;;;;;;;;;5028674;28;20036;-61
2022/01/13 11:00:33;;;;;;;88.20;36.88;;;;;;;;;;5023934;28;20038;-61
2022/01/13 11:02:59;;;;;;;79.10;35.65;;;;;;;;;;5020374;28;20021;-62
2022/01/13 11:05:26;;;;;;;83.43;36.38;;;;;;;;;;5016266;28;20032;-61
2022/01/13 11:07:52;;;;;;;79.85;35.15;;;;;;;;;;5028127;28;20040;-61
2022/01/13 11:10:18;;;;;;;82.97;34.47;;;;;;;;;;5020232;28;20057;-61
2022/01/13 11:12:49;;;;;;;87.00;34.78;;;;;;;;;;5021639;28;20026;-61
2022/01/13 11:15:17;;;;;;;77.90;33.88;;;;;;;;;;5017577;28;20603;-61
2022/01/13 11:17:45;;;;;;;78.68;33.85;;;;;;;;;;5024008;28;20048;-61
2022/01/13 11:20:18;;;;;;;84.05;35.75;;;;;;;;;;5031016;28;20536;-61
2022/01/13 11:22:45;;;;;;;83.63;35.58;;;;;;;;;;5023848;28;20444;-61
2022/01/13 11:25:12;;;;;;;83.68;36.30;;;;;;;;;;5023397;28;20540;-61
2022/01/13 11:27:39;;;;;;;79.72;35.70;;;;;;;;;;5019269;28;20028;-61
2022/01/13 11:30:07;;;;;;;80.93;34.80;;;;;;;;;;5019218;28;20334;-61
2022/01/13 11:32:32;;;;;;;86.00;36.88;;;;;;;;;;5020430;28;20022;-61
2022/01/13 11:34:59;;;;;;;81.10;35.33;;;;;;;;;;5020757;28;20480;-61
2022/01/13 11:37:26;;;;;;;86.65;36.60;;;;;;;;;;5018918;28;20029;-61
2022/01/13 11:39:52;;;;;;;83.20;35.55;;;;;;;;;;5023998;28;20025;-61
2022/01/13 11:42:18;;;;;;;81.70;36.40;;;;;;;;;;5013464;28;20034;-60
2022/01/13 11:44:44;;;;;;;81.32;35.10;;;;;;;;;;5017297;28;20021;-62
2022/01/13 11:47:19;;;;;;;84.13;35.95;;;;;;;;;;5014724;28;20462;-61
2022/01/13 11:50:05;;;;;;;86.50;34.97;;;;;;;;;;5029721;28;20028;-61
2022/01/13 11:52:43;;;;;;;74.95;32.58;;;;;;;;;;5026591;28;20092;-61
2022/01/13 11:55:28;;;;;;;78.75;33.08;;;;;;;;;;5025652;28;20066;-61
2022/01/13 11:58:12;;;;;;;75.50;31.73;;;;;;;;;;5023283;28;20068;-61
2022/01/13 12:00:39;;;;;;;76.07;32.22;;;;;;;;;;5027792;28;20034;-61
2022/01/13 12:03:24;;;;;;;79.38;33.65;;;;;;;;;;5023678;28;20033;-61
2022/01/13 12:05:50;;;;;;;77.35;33.53;;;;;;;;;;5023045;28;20034;-61
2022/01/13 12:08:35;;;;;;;83.72;36.42;;;;;;;;;;5026978;28;20428;-61
2022/01/13 12:11:01;;;;;;;83.55;36.28;;;;;;;;;;5032610;28;20025;-61
2022/01/13 12:13:27;;;;;;;88.32;35.10;;;;;;;;;;5026864;28;20018;-61
2022/01/13 12:15:53;;;;;;;87.68;34.60;;;;;;;;;;5025563;28;20116;-60
2022/01/13 12:18:38;;;;;;;82.35;34.65;;;;;;;;;;5013402;28;20053;-60
2022/01/13 12:21:20;;;;;;;80.68;33.97;;;;;;;;;;5023189;28;20368;-61
2022/01/13 12:23:46;;;;;;;77.78;33.65;;;;;;;;;;5017461;28;20037;-61
2022/01/13 12:26:31;;;;;;;73.93;32.42;;;;;;;;;;5026623;28;20029;-61
2022/01/13 12:29:14;;;;;;;77.20;32.95;;;;;;;;;;5016806;28;20041;-61
2022/01/13 12:31:50;;;;;;;81.35;33.90;;;;;;;;;;5022907;28;20025;-61
2022/01/13 12:34:28;;;;;;;81.72;32.53;;;;;;;;;;5013514;28;20100;-60
2022/01/13 12:36:58;;;;;;;73.60;34.05;;;;;;;;;;5019117;28;20485;-60
2022/01/13 12:39:24;;;;;;;83.63;34.40;;;;;;;;;;5016342;28;20481;-61
2022/01/13 12:42:01;;;;;;;72.72;33.70;;;;;;;;;;5018536;28;20021;-60
2022/01/13 12:47:13;;;;;;;76.63;31.17;;;;;;;;;;5008223;28;20044;-61
2022/01/13 12:49:39;;;;;;;67.63;31.20;;;;;;;;;;5010462;28;20033;-61
2022/01/13 12:52:05;;;;;;;79.28;34.45;;;;;;;;;;5020603;28;20062;-61
2022/01/13 12:54:31;;;;;;;76.85;33.35;;;;;;;;;;5019085;28;20029;-61
2022/01/13 12:57:02;;;;;;;69.28;31.45;;;;;;;;;;5021454;28;20037;-62
2022/01/13 12:59:28;;;;;;;69.20;29.13;;;;;;;;;;5016688;28;20064;-61
2022/01/13 13:01:57;;;;;;;79.75;29.80;;;;;;;;;;5010380;28;20131;-61
2022/01/13 13:04:23;;;;;;;81.80;33.50;;;;;;;;;;5017047;28;20049;-61
2022/01/13 13:06:49;;;;;;;77.05;31.58;;;;;;;;;;5011060;28;20125;-61
2022/01/13 13:09:19;;;;;;;77.63;31.17;;;;;;;;;;5012578;28;20025;-61
2022/01/13 13:11:46;;;;;;;74.90;31.30;;;;;;;;;;5018114;28;20105;-61
2022/01/13 13:14:18;;;;;;;77.70;32.60;;;;;;;;;;5016792;28;20025;-60
2022/01/13 13:16:45;;;;;;;83.68;33.13;;;;;;;;;;5019548;28;20112;-61
2022/01/13 13:19:11;;;;;;;81.25;32.40;;;;;;;;;;5025468;28;20117;-61
2022/01/13 13:21:37;;;;;;;77.30;31.55;;;;;;;;;;5025622;28;20108;-62
2022/01/13 13:24:03;;;;;;;78.22;32.85;;;;;;;;;;5019696;28;20033;-60
2022/01/13 13:26:30;;;;;;;85.40;33.20;;;;;;;;;;5022294;28;20117;-60
2022/01/13 13:28:56;;;;;;;85.10;33.85;;;;;;;;;;5023938;28;20524;-61
2022/01/13 13:31:23;;;;;;;79.03;32.15;;;;;;;;;;5028417;28;20044;-61
2022/01/13 13:33:58;;;;;;;78.57;33.15;;;;;;;;;;5027512;28;20120;-60
2022/01/13 13:36:26;;;;;;;83.78;33.63;;;;;;;;;;5031270;28;20025;-61
2022/01/13 13:39:00;;;;;;;80.43;32.97;;;;;;;;;;5030558;28;20196;-61
2022/01/13 13:41:28;;;;;;;81.47;32.60;;;;;;;;;;5024842;28;20125;-62
2022/01/13 13:43:55;;;;;;;91.90;36.03;;;;;;;;;;5017752;28;20104;-61
2022/01/13 13:46:21;;;;;;;78.00;33.15;;;;;;;;;;5020387;28;20109;-60
2022/01/13 13:48:48;;;;;;;81.50;35.03;;;;;;;;;;5023506;28;20166;-60
2022/01/13 13:51:15;;;;;;;77.43;34.45;;;;;;;;;;5030810;28;20094;-60
2022/01/13 13:54:00;;;;;;;81.65;35.05;;;;;;;;;;5029639;28;20025;-61
2022/01/13 13:56:26;;;;;;;87.65;36.58;;;;;;;;;;5030191;28;20060;-60
2022/01/13 13:58:52;;;;;;;80.60;35.30;;;;;;;;;;5037680;28;20120;-61
2022/01/13 14:01:18;;;;;;;78.05;34.80;;;;;;;;;;5026814;28;20130;-61
2022/01/13 14:03:45;;;;;;;82.18;34.97;;;;;;;;;;5024562;28;20105;-61
2022/01/13 14:06:11;;;;;;;83.85;35.97;;;;;;;;;;5021856;28;20063;-61
2022/01/13 14:08:56;;;;;;;86.70;39.10;;;;;;;;;;5017267;28;20064;-61
2022/01/13 14:11:22;;;;;;;90.70;40.28;;;;;;;;;;5026517;28;20190;-61
2022/01/13 14:13:48;;;;;;;87.93;36.40;;;;;;;;;;5022422;28;20309;-61
2022/01/13 14:16:33;;;;;;;84.68;35.58;;;;;;;;;;5024438;28;20556;-61
2022/01/13 14:19:03;;;;;;;77.55;33.53;;;;;;;;;;5019645;28;20021;-60
2022/01/13 14:21:44;;;;;;;78.70;34.35;;;;;;;;;;5022349;28;20033;-61
2022/01/13 14:24:10;;;;;;;85.47;35.25;;;;;;;;;;5027440;28;20120;-61
2022/01/13 14:26:36;;;;;;;84.95;34.30;;;;;;;;;;5022562;28;20115;-61
2022/01/13 14:29:02;;;;;;;86.97;37.50;;;;;;;;;;5019386;28;20024;-61
2022/01/13 14:31:36;;;;;;;83.78;37.13;;;;;;;;;;5018886;28;20034;-61
2022/01/13 14:34:02;;;;;;;86.32;38.00;;;;;;;;;;5023820;28;20032;-61
2022/01/13 14:36:36;;;;;;;84.18;36.58;;;;;;;;;;5024732;28;20140;-60
2022/01/13 14:39:04;;;;;;;86.32;37.38;;;;;;;;;;5029029;28;20119;-61
2022/01/13 14:41:37;;;;;;;83.45;37.70;;;;;;;;;;5029563;28;20103;-61
2022/01/13 14:44:03;;;;;;;;;;;;;;;;;;5018580;28;20473;-61
2022/01/13 14:46:30;;;;;;;84.60;35.47;;;;;;;;;;5021554;28;19971;-60
2022/01/13 14:48:56;;;;;;;87.38;37.63;;;;;;;;;;5029894;28;20021;-61
2022/01/13 14:51:23;;;;;;;85.90;38.58;;;;;;;;;;5028924;28;20478;-60
2022/01/13 14:53:49;;;;;;;85.38;37.72;;;;;;;;;;5026088;28;20049;-61